KJ4AJP Weather Reports


Display with metric or nautical units.
time (UTC)temp
F
wind
direction
speed
MPH
gust
MPH
rain 1hr
in
rain 24hr
in
rain mn
in
humidity
%
barometer
mb
20181215001120 50 3 2.0 8.0 0.01 0.57 0.41 99 1011.6
20181215000220 50 3 3.0 9.0 0.01 0.57 0.41 99 1011.3
20181214235320 50 349 4.0 9.0 0.01 0.56 0.40 99 1011.2
20181214234420 50 336 2.0 8.0 0.01 0.56 0.40 99 1011.3
20181214233520 50 351 4.0 11.0 0.02 0.56 0.40 99 1011.2
20181214232620 50 356 2.0 10.0 0.02 0.56 0.40 99 1011.2
20181214231721 50 1 4.0 10.0 0.02 0.56 0.40 99 1011.2
20181214230820 50 4 3.0 8.0 0.02 0.56 0.40 99 1011.3
20181214225920 50 4 2.0 8.0 0.02 0.56 0.40 99 1011.1
20181214225020 50 4 2.0 10.0 0.01 0.54 0.39 99 1010.9
20181214224121 50 12 3.0 10.0 0.00 0.53 0.38 99 1010.9
20181214223220 51 4 4.0 7.0 0.00 0.53 0.38 99 1011.3
20181214222320 51 3 4.0 8.0 0.01 0.53 0.38 99 1011.1
20181214221420 51 7 4.0 8.0 0.01 0.53 0.38 99 1011.0
20181214220520 51 22 3.0 11.0 0.02 0.53 0.38 99 1011.2
20181214215620 51 47 2.0 8.0 0.02 0.53 0.38 99 1011.3
20181214214720 51 37 3.0 8.0 0.05 0.53 0.38 99 1011.3
20181214213820 51 43 2.0 9.0 0.05 0.53 0.38 99 1011.3
20181214212920 51 34 2.0 11.0 0.06 0.53 0.38 99 1011.2
20181214212020 51 28 2.0 8.0 0.05 0.52 0.37 99 1011.2
20181214211120 51 11 4.0 8.0 0.05 0.52 0.37 99 1011.2
20181214210220 51 22 2.0 11.0 0.05 0.51 0.35 99 1011.1
20181214205320 51 38 3.0 11.0 0.04 0.50 0.34 99 1011.2
20181214204420 51 31 4.0 8.0 0.02 0.48 0.33 99 1011.5
20181214203520 51 24 4.0 8.0 0.01 0.47 0.32 99 1011.4
20181214202620 51 16 4.0 10.0 0.01 0.47 0.32 99 1011.3
20181214201720 51 24 4.0 10.0 0.01 0.47 0.32 99 1011.3
20181214200820 51 38 3.0 8.0 0.02 0.47 0.32 99 1011.3
20181214195920 51 38 2.0 8.0 0.01 0.46 0.31 99 1011.2
20181214195020 51 29 3.0 9.0 0.02 0.46 0.31 99 1011.2
20181214194120 51 21 3.0 8.0 0.02 0.46 0.31 99 1011.5
20181214193220 51 10 3.0 7.0 0.04 0.46 0.31 99 1011.9
20181214192320 51 28 2.0 8.0 0.06 0.46 0.31 99 1011.9
20181214191420 51 23 4.0 9.0 0.07 0.46 0.31 99 1012.1
20181214190520 51 15 3.0 8.0 0.08 0.45 0.30 99 1012.3
20181214185620 51 18 3.0 8.0 0.08 0.45 0.30 99 1012.6
20181214184721 51 25 2.0 8.0 0.08 0.44 0.28 99 1012.7
20181214183820 51 25 2.0 8.0 0.07 0.43 0.27 99 1013.1
20181214182920 51 15 2.0 6.0 0.06 0.41 0.26 99 1013.1
20181214182020 51 31 2.0 10.0 0.05 0.40 0.25 99 1013.3
20181214181120 51 8 2.0 6.0 0.04 0.39 0.24 99 1012.9
20181214180220 51 19 2.0 7.0 0.01 0.37 0.21 99 1013.0
20181214175320 51 35 2.0 7.0 0.00 0.35 0.20 99 1013.1
20181214174419 50 23 1.0 6.0 0.00 0.35 0.20 99 1013.3
20181214173520 50 22 1.0 6.0 0.00 0.35 0.20 99 1013.4
20181214172620 50 30 2.0 12.0 0.00 0.35 0.20 99 1013.1
20181214171720 50 18 4.0 12.0 0.00 0.35 0.20 99 1012.8
20181214170820 50 1 3.0 5.0 0.00 0.35 0.20 99 1013.6
20181214165920 50 10 2.0 8.0 0.00 0.35 0.20 99 1013.8
20181214165019 50 36 3.0 9.0 0.00 0.35 0.20 99 1013.8
20181214164120 50 40 4.0 9.0 0.00 0.35 0.20 99 1013.5
20181214163219 50 37 4.0 9.0 0.00 0.35 0.20 99 1014.2
20181214162321 50 24 4.0 9.0 0.01 0.35 0.20 99 1014.8
20181214161420 49 45 4.0 15.0 0.01 0.35 0.20 99 1014.1
20181214160520 49 54 2.0 5.0 0.01 0.35 0.20 99 1014.3
20181214155620 49 37 2.0 8.0 0.01 0.35 0.20 99 1015.0
20181214154720 49 48 2.0 8.0 0.01 0.35 0.20 99 1015.1
20181214153819 49 13 3.0 8.0 0.01 0.35 0.20 99 1015.2
20181214152921 49 35 1.0 8.0 0.00 0.34 0.19 99 1014.8
20181214152019 49 45 4.0 11.0 0.01 0.34 0.19 99 1014.5
20181214151120 49 41 1.0 7.0 0.01 0.34 0.19 99 1014.6
20181214150220 49 30 4.0 8.0 0.01 0.34 0.19 99 1014.7
20181214145320 49 12 2.0 9.0 0.02 0.34 0.19 99 1015.1
20181214144419 49 24 2.0 8.0 0.02 0.34 0.19 99 1015.4
20181214143520 49 56 3.0 5.0 0.02 0.35 0.19 99 1015.6
20181214142619 49 39 2.0 6.0 0.02 0.35 0.19 99 1015.9
20181214141720 49 36 1.0 4.0 0.01 0.34 0.18 99 1015.9
20181214140819 49 44 2.0 4.0 0.01 0.35 0.18 99 1015.6
20181214135920 49 48 1.0 6.0 0.01 0.35 0.18 99 1015.6
20181214135020 49 46 2.0 6.0 0.00 0.34 0.17 99 1015.5
20181214134120 49 80 1.0 7.0 0.00 0.34 0.17 99 1015.4
20181214133220 49 61 2.0 7.0 0.00 0.34 0.17 99 1014.7
20181214132320 49 25 2.0 7.0 0.00 0.34 0.17 99 1014.2
20181214131420 49 13 2.0 6.0 0.00 0.35 0.17 99 1014.3
20181214125620 49 33 2.0 6.0 0.00 0.35 0.17 99 1014.7
20181214124720 49 32 3.0 6.0 0.00 0.37 0.17 99 1014.8
20181214123819 49 49 1.0 4.0 0.01 0.38 0.17 99 1015.0
20181214122920 49 32 1.0 5.0 0.01 0.40 0.17 99 1014.7
20181214122019 49 20 2.0 4.0 0.01 0.40 0.17 99 1014.6
20181214121120 49 14 2.0 4.0 0.01 0.40 0.17 99 1014.5
20181214120219 49 27 1.0 4.0 0.01 0.40 0.17 99 1014.4
20181214115320 49 45 1.0 4.0 0.01 0.40 0.17 99 1014.4
20181214114419 49 30 2.0 3.0 0.01 0.40 0.17 99 1014.4
20181214113519 49 28 1.0 3.0 0.00 0.39 0.15 99 1014.4
20181214112619 49 24 0.0 3.0 0.00 0.40 0.15 99 1014.3
20181214111719 49 40 0.0 3.0 0.00 0.40 0.15 99 1014.4
20181214110819 49 24 1.0 4.0 0.00 0.40 0.15 99 1014.2
20181214105919 49 38 1.0 3.0 0.01 0.40 0.15 99 1014.4
20181214105019 49 59 1.0 4.0 0.02 0.40 0.15 99 1014.3
20181214104120 49 62 0.0 4.0 0.04 0.40 0.15 99 1014.6
20181214103219 49 66 2.0 4.0 0.04 0.40 0.15 99 1014.4
20181214102319 49 61 1.0 6.0 0.06 0.40 0.15 99 1014.4
20181214101421 49 55 2.0 4.0 0.07 0.40 0.15 99 1014.4
20181214100519 49 61 1.0 4.0 0.07 0.39 0.14 99 1014.4
20181214095619 49 85 2.0 4.0 0.07 0.38 0.14 99 1014.5
20181214094720 49 80 2.0 6.0 0.06 0.37 0.12 99 1014.5
20181214093819 49 80 3.0 6.0 0.06 0.37 0.12 99 1014.2
20181214092919 49 90 2.0 4.0 0.06 0.37 0.12 99 1014.2
20181214092020 49 93 2.0 5.0 0.04 0.34 0.09 99 1014.3
20181214091119 49 88 2.0 4.0 0.02 0.33 0.08 99 1014.3
20181214090220 49 98 2.0 6.0 0.01 0.32 0.07 99 1014.3
20181214085320 49 94 3.0 8.0 0.00 0.31 0.06 99 1014.6
20181214084420 49 99 3.0 8.0 0.00 0.31 0.06 99 1014.5
20181214083519 49 90 3.0 8.0 0.00 0.31 0.06 99 1014.4
20181214082619 49 90 4.0 8.0 0.00 0.31 0.06 99 1014.2
20181214081719 49 86 4.0 8.0 0.01 0.31 0.06 99 1014.1
20181214080820 49 82 4.0 8.0 0.02 0.31 0.06 99 1014.1
20181214075919 49 66 2.0 6.0 0.04 0.31 0.06 99 1014.1
20181214075019 49 75 1.0 8.0 0.05 0.31 0.06 99 1014.3
20181214074120 49 62 3.0 6.0 0.05 0.31 0.06 99 1014.2
20181214073219 49 63 2.0 8.0 0.05 0.31 0.06 99 1014.2
20181214072321 49 70 2.0 7.0 0.05 0.31 0.06 99 1014.3
20181214071419 49 84 2.0 6.0 0.02 0.29 0.04 99 1014.7
20181214070519 49 81 2.0 11.0 0.02 0.28 0.02 99 1014.2
20181214065620 49 89 2.0 8.0 0.04 0.28 0.02 99 1014.3
20181214064719 49 82 2.0 8.0 0.04 0.26 0.01 99 1014.1
20181214063819 49 77 2.0 10.0 0.05 0.26 0.01 99 1014.1
20181214062919 49 82 3.0 10.0 0.05 0.26 0.01 99 1014.0
20181214062019 50 84 3.0 10.0 0.05 0.26 0.01 99 1014.1
20181214061120 50 65 4.0 8.0 0.06 0.26 0.01 99 1014.3
20181214060219 50 80 3.0 9.0 0.06 0.25 0.00 99 1014.7
20181214055319 50 90 4.0 8.0 0.06 0.24 0.24 99 1014.6
20181214054419 50 83 3.0 8.0 0.06 0.23 0.23 99 1014.8
20181214053520 50 64 2.0 7.0 0.06 0.22 0.22 99 1014.8
20181214052619 50 78 2.0 10.0 0.06 0.22 0.22 99 1014.7
20181214051719 51 81 3.0 7.0 0.06 0.22 0.22 99 1014.7
20181214050819 51 79 3.0 6.0 0.05 0.20 0.20 99 1014.9
20181214045919 51 82 2.0 9.0 0.04 0.19 0.19 99 1014.9
20181214045019 51 102 4.0 15.0 0.01 0.17 0.17 99 1015.1
20181214044119 52 101 4.0 15.0 0.01 0.16 0.16 99 1015.1
20181214043219 52 116 4.0 11.0 0.01 0.16 0.16 99 1015.2
20181214042320 52 93 3.0 9.0 0.01 0.16 0.16 99 1015.2
20181214041419 52 90 4.0 8.0 0.01 0.16 0.16 99 1015.1
20181214040519 52 84 4.0 8.0 0.01 0.16 0.16 99 1014.8
20181214035619 52 98 3.0 11.0 0.01 0.16 0.16 99 1015.0
20181214034719 52 81 2.0 7.0 0.01 0.16 0.16 99 1014.9
20181214033819 52 90 2.0 7.0 0.01 0.15 0.15 99 1015.0
20181214032919 52 84 4.0 7.0 0.01 0.15 0.15 99 1014.9
20181214032019 52 93 2.0 10.0 0.01 0.15 0.15 99 1014.8
20181214031119 52 95 4.0 8.0 0.01 0.15 0.15 99 1014.8
20181214030219 53 85 2.0 8.0 0.01 0.15 0.15 99 1015.1
20181214025319 53 90 3.0 8.0 0.01 0.15 0.15 99 1015.0
20181214024419 53 107 4.0 11.0 0.02 0.15 0.15 99 1015.0
20181214023519 53 94 2.0 7.0 0.02 0.13 0.13 99 1015.0
20181214022619 53 98 3.0 6.0 0.02 0.13 0.13 99 1014.9
20181214021720 53 98 2.0 9.0 0.04 0.13 0.13 98 1015.1
20181214020819 53 98 4.0 9.0 0.04 0.13 0.13 98 1015.0
20181214015919 54 96 4.0 11.0 0.04 0.13 0.13 97 1015.1
20181214015019 54 121 6.0 15.0 0.02 0.12 0.12 95 1015.1
20181214014119 55 118 8.0 15.0 0.02 0.12 0.12 93 1015.2
20181214013219 56 118 7.0 13.0 0.01 0.11 0.11 91 1015.1
20181214012319 57 131 7.0 15.0 0.00 0.10 0.10 88 1015.2
20181214011419 57 131 11.0 15.0 0.00 0.10 0.10 87 1015.5
20181214010519 57 132 8.0 15.0 0.00 0.10 0.10 86 1015.2
20181214005620 57 129 8.0 15.0 0.00 0.10 0.10 87 1015.5
20181214004719 57 119 4.0 12.0 0.00 0.10 0.10 87 1015.4
20181214003819 57 136 9.0 12.0 0.00 0.10 0.10 87 1015.4
20181214002920 58 127 4.0 14.0 0.00 0.10 0.10 87 1015.3
20181214002019 58 113 6.0 14.0 0.00 0.10 0.10 87 1015.3